MKJP/KIN METAR and TAF weather

Enter ICAO airport designator
Station Type Date Time Source
MKJP METAR 2018/12/10 13:00 UTC NOAA

MKJP 101300Z 09007KT 9999 FEW022 27/22 Q1017


Station Type Date Time Source
MKJP Decoded METAR 2018/12/10 13:00 UTC NOAA

Kingston / Norman Manley, Jamaica (MKJP) 17-56N 076-47W 14M
Dec 10, 2018 - 08:00 AM EST / 2018.12.10 1300 UTC
Wind: from the E (090 degrees) at 8 MPH (7 KT):0
Visibility: greater than 7 mile(s):0
Sky conditions: mostly clear
Temperature: 80 F (27 C)
Dew Point: 71 F (22 C)
Relative Humidity: 74%
Pressure (altimeter): 30.03 in. Hg (1017 hPa)
ob: MKJP 101300Z 09007KT 9999 FEW022 27/22 Q1017
cycle: 13

Station Type Date Time Source
MKJP TAF 2018/12/10 12:15 UTC NOAA

TAF MKJP 101115Z 1012/1112 14015KT 9999 FEW022CB
BECMG 1100/1102 36005KT FEW022


Example: see airport list